sensor_id;sensor_type;location;lat;lon;timestamp;P1;durP1;ratioP1;P2;durP2;ratioP2
15843;SDS011;50807;52.436;13.346;2023-06-14T00:00:10;1.40;;;1.30;;
15843;SDS011;50807;52.436;13.346;2023-06-14T00:00:42;1.55;;;1.45;;
15843;SDS011;50807;52.436;13.346;2023-06-14T00:01:14;1.85;;;1.60;;
15843;SDS011;50807;52.436;13.346;2023-06-14T00:01:48;1.67;;;1.57;;
15843;SDS011;50807;52.436;13.346;2023-06-14T00:02:18;1.60;;;1.50;;
15843;SDS011;50807;52.436;13.346;2023-06-14T00:02:50;1.70;;;1.60;;
15843;SDS011;50807;52.436;13.346;2023-06-14T00:03:21;1.70;;;1.60;;
15843;SDS011;50807;52.436;13.346;2023-06-14T00:03:52;2.10;;;1.90;;
15843;SDS011;50807;52.436;13.346;2023-06-14T00:04:25;2.28;;;1.65;;
15843;SDS011;50807;52.436;13.346;2023-06-14T00:04:56;1.92;;;1.30;;
15843;SDS011;50807;52.436;13.346;2023-06-14T00:05:27;1.70;;;1.60;;
15843;SDS011;50807;52.436;13.346;2023-06-14T00:05:59;2.85;;;1.65;;
15843;SDS011;50807;52.436;13.346;2023-06-14T00:06:30;1.87;;;1.73;;
15843;SDS011;50807;52.436;13.346;2023-06-14T00:07:01;2.80;;;1.50;;
15843;SDS011;50807;52.436;13.346;2023-06-14T00:07:33;1.60;;;1.50;;
15843;SDS011;50807;52.436;13.346;2023-06-14T00:08:05;1.52;;;1.42;;
15843;SDS011;50807;52.436;13.346;2023-06-14T00:08:38;1.50;;;1.40;;
15843;SDS011;50807;52.436;13.346;2023-06-14T00:09:10;1.60;;;1.50;;
15843;SDS011;50807;52.436;13.346;2023-06-14T00:09:42;1.35;;;1.25;;
15843;SDS011;50807;52.436;13.346;2023-06-14T00:10:13;2.00;;;1.70;;
15843;SDS011;50807;52.436;13.346;2023-06-14T00:10:45;2.40;;;1.40;;
15843;SDS011;50807;52.436;13.346;2023-06-14T00:11:16;1.50;;;1.40;;
15843;SDS011;50807;52.436;13.346;2023-06-14T00:11:47;3.40;;;1.63;;
15843;SDS011;50807;52.436;13.346;2023-06-14T00:12:18;1.80;;;1.40;;
15843;SDS011;50807;52.436;13.346;2023-06-14T00:12:50;1.83;;;1.60;;
15843;SDS011;50807;52.436;13.346;2023-06-14T00:13:21;1.90;;;1.60;;
15843;SDS011;50807;52.436;13.346;2023-06-14T00:13:51;1.70;;;1.57;;
15843;SDS011;50807;52.436;13.346;2023-06-14T00:14:27;4.60;;;1.60;;
15843;SDS011;50807;52.436;13.346;2023-06-14T00:14:58;1.90;;;1.47;;
15843;SDS011;50807;52.436;13.346;2023-06-14T00:15:31;1.88;;;1.67;;
15843;SDS011;50807;52.436;13.346;2023-06-14T00:16:04;2.40;;;1.90;;
15843;SDS011;50807;52.436;13.346;2023-06-14T00:16:35;2.03;;;1.42;;
15843;SDS011;50807;52.436;13.346;2023-06-14T00:17:07;1.67;;;1.50;;
15843;SDS011;50807;52.436;13.346;2023-06-14T00:17:38;1.77;;;1.30;;
15843;SDS011;50807;52.436;13.346;2023-06-14T00:18:09;1.60;;;1.50;;
15843;SDS011;50807;52.436;13.346;2023-06-14T00:18:41;4.82;;;1.42;;
15843;SDS011;50807;52.436;13.346;2023-06-14T00:19:13;1.60;;;1.45;;
15843;SDS011;50807;52.436;13.346;2023-06-14T00:19:51;6.10;;;2.00;;
15843;SDS011;50807;52.436;13.346;2023-06-14T00:20:22;1.67;;;1.58;;
15843;SDS011;50807;52.436;13.346;2023-06-14T00:20:57;2.92;;;1.63;;
15843;SDS011;50807;52.436;13.346;2023-06-14T00:21:28;2.72;;;1.45;;
15843;SDS011;50807;52.436;13.346;2023-06-14T00:22:03;2.58;;;1.40;;
15843;SDS011;50807;52.436;13.346;2023-06-14T00:22:43;1.50;;;1.40;;
15843;SDS011;50807;52.436;13.346;2023-06-14T00:23:15;1.52;;;1.40;;
15843;SDS011;50807;52.436;13.346;2023-06-14T00:23:46;2.63;;;1.60;;
15843;SDS011;50807;52.436;13.346;2023-06-14T00:24:17;2.70;;;1.30;;
15843;SDS011;50807;52.436;13.346;2023-06-14T00:24:52;1.58;;;1.48;;
15843;SDS011;50807;52.436;13.346;2023-06-14T00:25:26;1.67;;;1.40;;
15843;SDS011;50807;52.436;13.346;2023-06-14T00:25:58;3.72;;;1.48;;
15843;SDS011;50807;52.436;13.346;2023-06-14T00:26:29;3.55;;;1.50;;
15843;SDS011;50807;52.436;13.346;2023-06-14T00:27:00;1.55;;;1.45;;
15843;SDS011;50807;52.436;13.346;2023-06-14T00:27:31;1.50;;;1.40;;
15843;SDS011;50807;52.436;13.346;2023-06-14T00:28:02;1.60;;;1.30;;
15843;SDS011;50807;52.436;13.346;2023-06-14T00:28:34;1.60;;;1.50;;
15843;SDS011;50807;52.436;13.346;2023-06-14T00:29:05;1.40;;;1.30;;
15843;SDS011;50807;52.436;13.346;2023-06-14T00:29:36;1.80;;;1.50;;
15843;SDS011;50807;52.436;13.346;2023-06-14T00:30:14;1.50;;;1.40;;
15843;SDS011;50807;52.436;13.346;2023-06-14T00:30:45;1.75;;;1.40;;
15843;SDS011;50807;52.436;13.346;2023-06-14T00:31:16;1.70;;;1.60;;
15843;SDS011;50807;52.436;13.346;2023-06-14T00:31:48;1.63;;;1.52;;
15843;SDS011;50807;52.436;13.346;2023-06-14T00:32:19;1.43;;;1.33;;
15843;SDS011;50807;52.436;13.346;2023-06-14T00:32:54;1.42;;;1.33;;
15843;SDS011;50807;52.436;13.346;2023-06-14T00:33:35;1.60;;;1.50;;
15843;SDS011;50807;52.436;13.346;2023-06-14T00:34:05;1.33;;;1.20;;
15843;SDS011;50807;52.436;13.346;2023-06-14T00:34:36;1.70;;;1.47;;
15843;SDS011;50807;52.436;13.346;2023-06-14T00:35:12;1.65;;;1.55;;
15843;SDS011;50807;52.436;13.346;2023-06-14T00:35:43;1.67;;;1.48;;
15843;SDS011;50807;52.436;13.346;2023-06-14T00:36:17;2.35;;;1.52;;
15843;SDS011;50807;52.436;13.346;2023-06-14T00:36:48;1.70;;;1.60;;
15843;SDS011;50807;52.436;13.346;2023-06-14T00:37:20;7.80;;;1.40;;
15843;SDS011;50807;52.436;13.346;2023-06-14T00:37:55;1.63;;;1.52;;
15843;SDS011;50807;52.436;13.346;2023-06-14T00:38:27;1.40;;;1.30;;
15843;SDS011;50807;52.436;13.346;2023-06-14T00:38:57;1.43;;;1.33;;
15843;SDS011;50807;52.436;13.346;2023-06-14T00:39:28;1.70;;;1.60;;
15843;SDS011;50807;52.436;13.346;2023-06-14T00:40:02;3.45;;;2.00;;
15843;SDS011;50807;52.436;13.346;2023-06-14T00:40:34;1.45;;;1.30;;
15843;SDS011;50807;52.436;13.346;2023-06-14T00:41:05;2.60;;;1.50;;
15843;SDS011;50807;52.436;13.346;2023-06-14T00:41:36;5.90;;;2.08;;
15843;SDS011;50807;52.436;13.346;2023-06-14T00:42:07;1.58;;;1.48;;
15843;SDS011;50807;52.436;13.346;2023-06-14T00:42:38;1.97;;;1.50;;
15843;SDS011;50807;52.436;13.346;2023-06-14T00:43:10;1.65;;;1.55;;
15843;SDS011;50807;52.436;13.346;2023-06-14T00:43:41;1.70;;;1.60;;
15843;SDS011;50807;52.436;13.346;2023-06-14T00:44:12;1.67;;;1.58;;
15843;SDS011;50807;52.436;13.346;2023-06-14T00:44:48;1.60;;;1.50;;
15843;SDS011;50807;52.436;13.346;2023-06-14T00:45:19;1.67;;;1.57;;
15843;SDS011;50807;52.436;13.346;2023-06-14T00:45:50;1.67;;;1.57;;
15843;SDS011;50807;52.436;13.346;2023-06-14T00:46:23;1.77;;;1.60;;
15843;SDS011;50807;52.436;13.346;2023-06-14T00:46:54;2.10;;;1.70;;
15843;SDS011;50807;52.436;13.346;2023-06-14T00:47:25;1.73;;;1.63;;
15843;SDS011;50807;52.436;13.346;2023-06-14T00:47:56;2.10;;;1.85;;
15843;SDS011;50807;52.436;13.346;2023-06-14T00:48:28;2.00;;;1.70;;
15843;SDS011;50807;52.436;13.346;2023-06-14T00:49:00;1.85;;;1.52;;
15843;SDS011;50807;52.436;13.346;2023-06-14T00:49:33;2.13;;;1.70;;
15843;SDS011;50807;52.436;13.346;2023-06-14T00:50:06;2.20;;;2.00;;
15843;SDS011;50807;52.436;13.346;2023-06-14T00:50:40;2.13;;;1.75;;
15843;SDS011;50807;52.436;13.346;2023-06-14T00:51:15;1.75;;;1.65;;
15843;SDS011;50807;52.436;13.346;2023-06-14T00:51:46;2.03;;;1.63;;
15843;SDS011;50807;52.436;13.346;2023-06-14T00:52:18;2.10;;;1.90;;
15843;SDS011;50807;52.436;13.346;2023-06-14T00:52:51;1.70;;;1.60;;
15843;SDS011;50807;52.436;13.346;2023-06-14T00:53:21;2.00;;;1.87;;
15843;SDS011;50807;52.436;13.346;2023-06-14T00:53:53;2.80;;;1.90;;
15843;SDS011;50807;52.436;13.346;2023-06-14T00:54:24;2.25;;;1.55;;
15843;SDS011;50807;52.436;13.346;2023-06-14T00:54:55;2.07;;;1.70;;
15843;SDS011;50807;52.436;13.346;2023-06-14T00:55:26;1.90;;;1.80;;
15843;SDS011;50807;52.436;13.346;2023-06-14T00:55:58;2.45;;;1.70;;
15843;SDS011;50807;52.436;13.346;2023-06-14T00:56:29;1.73;;;1.58;;
15843;SDS011;50807;52.436;13.346;2023-06-14T00:57:00;2.00;;;1.77;;
15843;SDS011;50807;52.436;13.346;2023-06-14T00:57:32;1.80;;;1.50;;
15843;SDS011;50807;52.436;13.346;2023-06-14T00:58:03;1.90;;;1.60;;
15843;SDS011;50807;52.436;13.346;2023-06-14T00:58:34;3.03;;;1.83;;
15843;SDS011;50807;52.436;13.346;2023-06-14T00:59:06;2.38;;;1.67;;
15843;SDS011;50807;52.436;13.346;2023-06-14T00:59:38;2.53;;;2.00;;
15843;SDS011;50807;52.436;13.346;2023-06-14T01:00:15;2.00;;;1.80;;
15843;SDS011;50807;52.436;13.346;2023-06-14T01:00:47;2.22;;;2.03;;
15843;SDS011;50807;52.436;13.346;2023-06-14T01:01:18;1.60;;;1.50;;
15843;SDS011;50807;52.436;13.346;2023-06-14T01:01:49;3.10;;;2.07;;
15843;SDS011;50807;52.436;13.346;2023-06-14T01:02:20;3.77;;;1.93;;
15843;SDS011;50807;52.436;13.346;2023-06-14T01:02:55;1.80;;;1.65;;
15843;SDS011;50807;52.436;13.346;2023-06-14T01:03:26;2.17;;;1.98;;
15843;SDS011;50807;52.436;13.346;2023-06-14T01:03:58;2.10;;;1.90;;
15843;SDS011;50807;52.436;13.346;2023-06-14T01:04:31;2.00;;;1.80;;
15843;SDS011;50807;52.436;13.346;2023-06-14T01:05:02;4.00;;;1.77;;
15843;SDS011;50807;52.436;13.346;2023-06-14T01:05:37;1.75;;;1.65;;
15843;SDS011;50807;52.436;13.346;2023-06-14T01:06:19;2.03;;;1.83;;
15843;SDS011;50807;52.436;13.346;2023-06-14T01:07:02;2.10;;;1.90;;
15843;SDS011;50807;52.436;13.346;2023-06-14T01:07:51;2.40;;;1.85;;
15843;SDS011;50807;52.436;13.346;2023-06-14T01:08:43;1.80;;;1.70;;
15843;SDS011;50807;52.436;13.346;2023-06-14T01:09:27;2.10;;;1.90;;
15843;SDS011;50807;52.436;13.346;2023-06-14T01:10:12;10.18;;;1.73;;
15843;SDS011;50807;52.436;13.346;2023-06-14T01:11:18;2.90;;;1.85;;
15843;SDS011;50807;52.436;13.346;2023-06-14T01:12:00;1.80;;;1.70;;
15843;SDS011;50807;52.436;13.346;2023-06-14T01:12:44;2.13;;;1.80;;
15843;SDS011;50807;52.436;13.346;2023-06-14T01:14:12;2.78;;;1.98;;
15843;SDS011;50807;52.436;13.346;2023-06-14T01:14:45;2.13;;;1.92;;
15843;SDS011;50807;52.436;13.346;2023-06-14T01:15:20;2.38;;;1.90;;
15843;SDS011;50807;52.436;13.346;2023-06-14T01:15:52;1.95;;;1.85;;
15843;SDS011;50807;52.436;13.346;2023-06-14T01:16:26;1.80;;;1.70;;
15843;SDS011;50807;52.436;13.346;2023-06-14T01:16:59;1.90;;;1.80;;
15843;SDS011;50807;52.436;13.346;2023-06-14T01:17:32;2.85;;;1.73;;
15843;SDS011;50807;52.436;13.346;2023-06-14T01:18:05;2.63;;;2.08;;
15843;SDS011;50807;52.436;13.346;2023-06-14T01:18:37;2.30;;;2.00;;
15843;SDS011;50807;52.436;13.346;2023-06-14T01:19:09;2.10;;;1.90;;
15843;SDS011;50807;52.436;13.346;2023-06-14T01:19:45;2.30;;;2.10;;
15843;SDS011;50807;52.436;13.346;2023-06-14T01:20:16;2.30;;;2.10;;
15843;SDS011;50807;52.436;13.346;2023-06-14T01:20:51;2.90;;;2.08;;
15843;SDS011;50807;52.436;13.346;2023-06-14T01:21:25;2.38;;;2.15;;
15843;SDS011;50807;52.436;13.346;2023-06-14T01:21:58;2.03;;;1.92;;
15843;SDS011;50807;52.436;13.346;2023-06-14T01:22:32;3.20;;;2.17;;
15843;SDS011;50807;52.436;13.346;2023-06-14T01:23:06;2.20;;;2.00;;
15843;SDS011;50807;52.436;13.346;2023-06-14T01:23:36;1.92;;;1.83;;
15843;SDS011;50807;52.436;13.346;2023-06-14T01:24:08;2.55;;;1.90;;
15843;SDS011;50807;52.436;13.346;2023-06-14T01:24:41;2.10;;;2.00;;
15843;SDS011;50807;52.436;13.346;2023-06-14T01:25:14;2.45;;;2.05;;
15843;SDS011;50807;52.436;13.346;2023-06-14T01:25:46;2.75;;;2.40;;
15843;SDS011;50807;52.436;13.346;2023-06-14T01:26:22;2.20;;;2.00;;
15843;SDS011;50807;52.436;13.346;2023-06-14T01:26:53;2.10;;;1.88;;
15843;SDS011;50807;52.436;13.346;2023-06-14T01:27:26;2.10;;;1.90;;
15843;SDS011;50807;52.436;13.346;2023-06-14T01:27:59;2.30;;;2.10;;
15843;SDS011;50807;52.436;13.346;2023-06-14T01:28:40;2.42;;;2.05;;
15843;SDS011;50807;52.436;13.346;2023-06-14T01:29:12;2.10;;;1.92;;
15843;SDS011;50807;52.436;13.346;2023-06-14T01:29:47;2.25;;;2.10;;
15843;SDS011;50807;52.436;13.346;2023-06-14T01:30:19;2.10;;;1.90;;
15843;SDS011;50807;52.436;13.346;2023-06-14T01:30:53;1.90;;;1.77;;
15843;SDS011;50807;52.436;13.346;2023-06-14T01:31:25;2.65;;;2.17;;
15843;SDS011;50807;52.436;13.346;2023-06-14T01:31:59;2.33;;;2.13;;
15843;SDS011;50807;52.436;13.346;2023-06-14T01:32:31;2.63;;;2.20;;
15843;SDS011;50807;52.436;13.346;2023-06-14T01:33:03;2.20;;;1.95;;
15843;SDS011;50807;52.436;13.346;2023-06-14T01:33:36;2.55;;;2.35;;
15843;SDS011;50807;52.436;13.346;2023-06-14T01:34:08;2.35;;;2.15;;
15843;SDS011;50807;52.436;13.346;2023-06-14T01:34:40;2.08;;;1.98;;
15843;SDS011;50807;52.436;13.346;2023-06-14T01:35:12;2.65;;;2.25;;
15843;SDS011;50807;52.436;13.346;2023-06-14T01:35:45;2.33;;;2.13;;
15843;SDS011;50807;52.436;13.346;2023-06-14T01:36:18;3.67;;;2.10;;
15843;SDS011;50807;52.436;13.346;2023-06-14T01:36:52;2.40;;;2.20;;
15843;SDS011;50807;52.436;13.346;2023-06-14T01:37:24;2.05;;;1.95;;
15843;SDS011;50807;52.436;13.346;2023-06-14T01:37:56;2.30;;;2.10;;
15843;SDS011;50807;52.436;13.346;2023-06-14T01:38:31;2.10;;;2.00;;
15843;SDS011;50807;52.436;13.346;2023-06-14T01:39:04;2.03;;;1.90;;
15843;SDS011;50807;52.436;13.346;2023-06-14T01:39:36;1.80;;;1.70;;
15843;SDS011;50807;52.436;13.346;2023-06-14T01:40:08;2.55;;;2.20;;
15843;SDS011;50807;52.436;13.346;2023-06-14T01:40:43;3.95;;;2.13;;
15843;SDS011;50807;52.436;13.346;2023-06-14T01:41:15;2.45;;;2.25;;
15843;SDS011;50807;52.436;13.346;2023-06-14T01:41:48;2.17;;;2.00;;
15843;SDS011;50807;52.436;13.346;2023-06-14T01:42:21;2.50;;;2.30;;
15843;SDS011;50807;52.436;13.346;2023-06-14T01:42:53;1.95;;;1.80;;
15843;SDS011;50807;52.436;13.346;2023-06-14T01:43:24;2.30;;;2.10;;
15843;SDS011;50807;52.436;13.346;2023-06-14T01:43:56;2.20;;;2.10;;
15843;SDS011;50807;52.436;13.346;2023-06-14T01:44:30;2.38;;;2.13;;
15843;SDS011;50807;52.436;13.346;2023-06-14T01:45:01;2.03;;;1.90;;
15843;SDS011;50807;52.436;13.346;2023-06-14T01:45:34;3.15;;;2.55;;
15843;SDS011;50807;52.436;13.346;2023-06-14T01:46:08;2.10;;;2.00;;
15843;SDS011;50807;52.436;13.346;2023-06-14T01:46:41;2.10;;;2.00;;
15843;SDS011;50807;52.436;13.346;2023-06-14T01:47:14;2.45;;;2.25;;
15843;SDS011;50807;52.436;13.346;2023-06-14T01:47:46;2.15;;;1.95;;
15843;SDS011;50807;52.436;13.346;2023-06-14T01:48:18;2.72;;;2.28;;
15843;SDS011;50807;52.436;13.346;2023-06-14T01:48:50;2.10;;;2.00;;
15843;SDS011;50807;52.436;13.346;2023-06-14T01:49:23;2.58;;;2.38;;
15843;SDS011;50807;52.436;13.346;2023-06-14T01:49:54;2.40;;;2.20;;
15843;SDS011;50807;52.436;13.346;2023-06-14T01:50:27;2.33;;;2.13;;
15843;SDS011;50807;52.436;13.346;2023-06-14T01:51:00;1.83;;;1.73;;
15843;SDS011;50807;52.436;13.346;2023-06-14T01:51:31;2.13;;;1.92;;
15843;SDS011;50807;52.436;13.346;2023-06-14T01:52:03;2.58;;;2.38;;
15843;SDS011;50807;52.436;13.346;2023-06-14T01:52:36;2.60;;;1.98;;
15843;SDS011;50807;52.436;13.346;2023-06-14T01:53:08;2.58;;;2.38;;
15843;SDS011;50807;52.436;13.346;2023-06-14T01:53:42;2.53;;;2.33;;
15843;SDS011;50807;52.436;13.346;2023-06-14T01:54:13;3.05;;;2.28;;
15843;SDS011;50807;52.436;13.346;2023-06-14T01:54:45;2.38;;;2.17;;
15843;SDS011;50807;52.436;13.346;2023-06-14T01:55:17;2.67;;;2.30;;
15843;SDS011;50807;52.436;13.346;2023-06-14T01:55:48;3.55;;;2.20;;
15843;SDS011;50807;52.436;13.346;2023-06-14T01:56:24;2.38;;;2.17;;
15843;SDS011;50807;52.436;13.346;2023-06-14T01:56:56;2.38;;;2.15;;
15843;SDS011;50807;52.436;13.346;2023-06-14T01:57:27;2.40;;;2.20;;
15843;SDS011;50807;52.436;13.346;2023-06-14T01:57:59;3.28;;;2.40;;
15843;SDS011;50807;52.436;13.346;2023-06-14T01:58:31;2.10;;;2.00;;
15843;SDS011;50807;52.436;13.346;2023-06-14T01:59:02;2.80;;;2.60;;
15843;SDS011;50807;52.436;13.346;2023-06-14T01:59:33;3.20;;;2.50;;
15843;SDS011;50807;52.436;13.346;2023-06-14T02:00:05;2.30;;;2.10;;
15843;SDS011;50807;52.436;13.346;2023-06-14T02:00:42;2.20;;;2.00;;
15843;SDS011;50807;52.436;13.346;2023-06-14T02:01:13;2.67;;;2.42;;
15843;SDS011;50807;52.436;13.346;2023-06-14T02:01:46;2.17;;;1.98;;
15843;SDS011;50807;52.436;13.346;2023-06-14T02:02:18;2.33;;;2.13;;
15843;SDS011;50807;52.436;13.346;2023-06-14T02:02:49;2.63;;;2.42;;
15843;SDS011;50807;52.436;13.346;2023-06-14T02:03:20;2.65;;;2.17;;
15843;SDS011;50807;52.436;13.346;2023-06-14T02:03:53;2.40;;;2.20;;
15843;SDS011;50807;52.436;13.346;2023-06-14T02:04:24;2.40;;;2.20;;
15843;SDS011;50807;52.436;13.346;2023-06-14T02:04:55;2.22;;;2.03;;
15843;SDS011;50807;52.436;13.346;2023-06-14T02:05:28;3.45;;;2.45;;
15843;SDS011;50807;52.436;13.346;2023-06-14T02:06:00;4.10;;;2.22;;
15843;SDS011;50807;52.436;13.346;2023-06-14T02:06:31;2.70;;;2.13;;
15843;SDS011;50807;52.436;13.346;2023-06-14T02:07:04;2.50;;;2.30;;
15843;SDS011;50807;52.436;13.346;2023-06-14T02:07:35;2.85;;;2.55;;
15843;SDS011;50807;52.436;13.346;2023-06-14T02:08:07;2.30;;;2.10;;
15843;SDS011;50807;52.436;13.346;2023-06-14T02:08:38;3.17;;;2.20;;
15843;SDS011;50807;52.436;13.346;2023-06-14T02:09:11;3.15;;;2.13;;
15843;SDS011;50807;52.436;13.346;2023-06-14T02:09:42;2.55;;;2.28;;
15843;SDS011;50807;52.436;13.346;2023-06-14T02:10:13;2.97;;;2.70;;
15843;SDS011;50807;52.436;13.346;2023-06-14T02:10:45;2.38;;;2.17;;
15843;SDS011;50807;52.436;13.346;2023-06-14T02:11:16;2.25;;;2.05;;
15843;SDS011;50807;52.436;13.346;2023-06-14T02:11:47;3.00;;;2.40;;
15843;SDS011;50807;52.436;13.346;2023-06-14T02:12:19;4.35;;;2.10;;
15843;SDS011;50807;52.436;13.346;2023-06-14T02:12:50;3.00;;;2.40;;
15843;SDS011;50807;52.436;13.346;2023-06-14T02:13:21;2.75;;;2.55;;
15843;SDS011;50807;52.436;13.346;2023-06-14T02:13:53;2.45;;;2.25;;
15843;SDS011;50807;52.436;13.346;2023-06-14T02:14:25;2.60;;;2.40;;
15843;SDS011;50807;52.436;13.346;2023-06-14T02:14:56;2.55;;;2.35;;
15843;SDS011;50807;52.436;13.346;2023-06-14T02:15:28;2.70;;;2.50;;
15843;SDS011;50807;52.436;13.346;2023-06-14T02:16:03;2.38;;;2.17;;
15843;SDS011;50807;52.436;13.346;2023-06-14T02:16:35;2.72;;;2.53;;
15843;SDS011;50807;52.436;13.346;2023-06-14T02:17:06;2.25;;;2.05;;
15843;SDS011;50807;52.436;13.346;2023-06-14T02:17:37;2.97;;;2.40;;
15843;SDS011;50807;52.436;13.346;2023-06-14T02:18:09;1.98;;;1.88;;
15843;SDS011;50807;52.436;13.346;2023-06-14T02:18:41;2.45;;;2.10;;
15843;SDS011;50807;52.436;13.346;2023-06-14T02:19:13;2.45;;;2.20;;
15843;SDS011;50807;52.436;13.346;2023-06-14T02:19:44;2.20;;;2.00;;
15843;SDS011;50807;52.436;13.346;2023-06-14T02:20:15;2.80;;;2.50;;
15843;SDS011;50807;52.436;13.346;2023-06-14T02:20:48;2.63;;;2.42;;
15843;SDS011;50807;52.436;13.346;2023-06-14T02:21:19;3.67;;;3.00;;
15843;SDS011;50807;52.436;13.346;2023-06-14T02:21:50;2.97;;;2.75;;
15843;SDS011;50807;52.436;13.346;2023-06-14T02:22:22;2.53;;;2.33;;
15843;SDS011;50807;52.436;13.346;2023-06-14T02:22:53;3.13;;;2.70;;
15843;SDS011;50807;52.436;13.346;2023-06-14T02:23:24;3.22;;;2.42;;
15843;SDS011;50807;52.436;13.346;2023-06-14T02:23:56;3.05;;;2.50;;
15843;SDS011;50807;52.436;13.346;2023-06-14T02:24:29;2.58;;;2.38;;
15843;SDS011;50807;52.436;13.346;2023-06-14T02:25:00;2.75;;;2.55;;
15843;SDS011;50807;52.436;13.346;2023-06-14T02:25:32;3.05;;;2.75;;
15843;SDS011;50807;52.436;13.346;2023-06-14T02:26:04;2.90;;;2.70;;
15843;SDS011;50807;52.436;13.346;2023-06-14T02:26:36;2.65;;;2.30;;
15843;SDS011;50807;52.436;13.346;2023-06-14T02:27:07;2.60;;;2.40;;
15843;SDS011;50807;52.436;13.346;2023-06-14T02:27:40;2.50;;;2.30;;
15843;SDS011;50807;52.436;13.346;2023-06-14T02:28:12;3.38;;;2.47;;
15843;SDS011;50807;52.436;13.346;2023-06-14T02:28:43;2.90;;;2.63;;
15843;SDS011;50807;52.436;13.346;2023-06-14T02:29:14;2.20;;;2.00;;
15843;SDS011;50807;52.436;13.346;2023-06-14T02:29:46;3.00;;;2.67;;
15843;SDS011;50807;52.436;13.346;2023-06-14T02:30:18;2.53;;;2.33;;
15843;SDS011;50807;52.436;13.346;2023-06-14T02:30:49;2.80;;;2.60;;
15843;SDS011;50807;52.436;13.346;2023-06-14T02:31:20;2.65;;;2.45;;
15843;SDS011;50807;52.436;13.346;2023-06-14T02:31:52;3.80;;;2.40;;
15843;SDS011;50807;52.436;13.346;2023-06-14T02:32:23;2.30;;;2.10;;
15843;SDS011;50807;52.436;13.346;2023-06-14T02:32:54;2.60;;;2.40;;
15843;SDS011;50807;52.436;13.346;2023-06-14T02:33:25;2.70;;;2.50;;
15843;SDS011;50807;52.436;13.346;2023-06-14T02:33:57;3.03;;;2.45;;
15843;SDS011;50807;52.436;13.346;2023-06-14T02:34:28;2.83;;;2.50;;
15843;SDS011;50807;52.436;13.346;2023-06-14T02:34:59;2.70;;;2.50;;
15843;SDS011;50807;52.436;13.346;2023-06-14T02:35:31;2.75;;;2.55;;
15843;SDS011;50807;52.436;13.346;2023-06-14T02:36:02;2.70;;;2.47;;
15843;SDS011;50807;52.436;13.346;2023-06-14T02:36:33;3.83;;;2.58;;
15843;SDS011;50807;52.436;13.346;2023-06-14T02:37:11;2.88;;;2.47;;
15843;SDS011;50807;52.436;13.346;2023-06-14T02:37:43;2.72;;;2.53;;
15843;SDS011;50807;52.436;13.346;2023-06-14T02:38:14;5.50;;;2.93;;
15843;SDS011;50807;52.436;13.346;2023-06-14T02:38:45;3.03;;;2.70;;
15843;SDS011;50807;52.436;13.346;2023-06-14T02:39:17;2.97;;;2.78;;
15843;SDS011;50807;52.436;13.346;2023-06-14T02:39:52;2.60;;;2.40;;
15843;SDS011;50807;52.436;13.346;2023-06-14T02:40:23;3.30;;;2.97;;
15843;SDS011;50807;52.436;13.346;2023-06-14T02:40:55;3.15;;;2.85;;
15843;SDS011;50807;52.436;13.346;2023-06-14T02:41:26;2.70;;;2.50;;
15843;SDS011;50807;52.436;13.346;2023-06-14T02:41:58;2.72;;;2.53;;
15843;SDS011;50807;52.436;13.346;2023-06-14T02:42:29;2.60;;;2.40;;
15843;SDS011;50807;52.436;13.346;2023-06-14T02:43:00;3.38;;;2.40;;
15843;SDS011;50807;52.436;13.346;2023-06-14T02:43:32;2.50;;;2.30;;
15843;SDS011;50807;52.436;13.346;2023-06-14T02:44:03;2.73;;;2.53;;
15843;SDS011;50807;52.436;13.346;2023-06-14T02:44:35;2.80;;;2.60;;
15843;SDS011;50807;52.436;13.346;2023-06-14T02:45:07;2.90;;;2.65;;
15843;SDS011;50807;52.436;13.346;2023-06-14T02:45:39;2.90;;;2.60;;
15843;SDS011;50807;52.436;13.346;2023-06-14T02:46:10;3.15;;;2.40;;
15843;SDS011;50807;52.436;13.346;2023-06-14T02:46:42;3.67;;;2.97;;
15843;SDS011;50807;52.436;13.346;2023-06-14T02:47:13;3.42;;;2.90;;
15843;SDS011;50807;52.436;13.346;2023-06-14T02:47:44;7.37;;;3.00;;
15843;SDS011;50807;52.436;13.346;2023-06-14T02:48:16;3.22;;;2.92;;
15843;SDS011;50807;52.436;13.346;2023-06-14T02:48:47;2.77;;;2.57;;
15843;SDS011;50807;52.436;13.346;2023-06-14T02:49:18;3.10;;;2.87;;
15843;SDS011;50807;52.436;13.346;2023-06-14T02:49:50;2.90;;;2.70;;
15843;SDS011;50807;52.436;13.346;2023-06-14T02:50:21;2.70;;;2.50;;
15843;SDS011;50807;52.436;13.346;2023-06-14T02:50:53;2.90;;;2.70;;
15843;SDS011;50807;52.436;13.346;2023-06-14T02:51:26;3.53;;;2.58;;
15843;SDS011;50807;52.436;13.346;2023-06-14T02:51:57;2.97;;;2.67;;
15843;SDS011;50807;52.436;13.346;2023-06-14T02:52:28;3.20;;;2.40;;
15843;SDS011;50807;52.436;13.346;2023-06-14T02:53:00;3.50;;;2.78;;
15843;SDS011;50807;52.436;13.346;2023-06-14T02:53:32;2.92;;;2.72;;
15843;SDS011;50807;52.436;13.346;2023-06-14T02:54:03;2.67;;;2.47;;
15843;SDS011;50807;52.436;13.346;2023-06-14T02:54:35;2.83;;;2.53;;
15843;SDS011;50807;52.436;13.346;2023-06-14T02:55:08;2.90;;;2.70;;
15843;SDS011;50807;52.436;13.346;2023-06-14T02:55:39;2.85;;;2.65;;
15843;SDS011;50807;52.436;13.346;2023-06-14T02:56:11;2.78;;;2.58;;
15843;SDS011;50807;52.436;13.346;2023-06-14T02:56:43;3.13;;;2.83;;
15843;SDS011;50807;52.436;13.346;2023-06-14T02:57:14;3.00;;;2.80;;
15843;SDS011;50807;52.436;13.346;2023-06-14T02:57:45;3.22;;;2.60;;
15843;SDS011;50807;52.436;13.346;2023-06-14T02:58:18;3.45;;;3.15;;
15843;SDS011;50807;52.436;13.346;2023-06-14T02:58:49;2.83;;;2.63;;
15843;SDS011;50807;52.436;13.346;2023-06-14T02:59:20;3.25;;;2.88;;
15843;SDS011;50807;52.436;13.346;2023-06-14T02:59:55;3.08;;;2.88;;
15843;SDS011;50807;52.436;13.346;2023-06-14T03:00:26;2.73;;;2.53;;
15843;SDS011;50807;52.436;13.346;2023-06-14T03:00:57;3.13;;;2.90;;
15843;SDS011;50807;52.436;13.346;2023-06-14T03:01:31;3.38;;;3.00;;
15843;SDS011;50807;52.436;13.346;2023-06-14T03:02:04;2.60;;;2.40;;
15843;SDS011;50807;52.436;13.346;2023-06-14T03:02:35;3.63;;;2.65;;
15843;SDS011;50807;52.436;13.346;2023-06-14T03:03:07;3.05;;;2.85;;
15843;SDS011;50807;52.436;13.346;2023-06-14T03:03:43;3.40;;;3.10;;
15843;SDS011;50807;52.436;13.346;2023-06-14T03:04:14;2.97;;;2.75;;
15843;SDS011;50807;52.436;13.346;2023-06-14T03:04:46;3.13;;;2.85;;
15843;SDS011;50807;52.436;13.346;2023-06-14T03:05:17;3.28;;;2.97;;
15843;SDS011;50807;52.436;13.346;2023-06-14T03:05:51;3.25;;;2.95;;
15843;SDS011;50807;52.436;13.346;2023-06-14T03:06:22;3.47;;;3.07;;
15843;SDS011;50807;52.436;13.346;2023-06-14T03:06:55;3.35;;;3.05;;
15843;SDS011;50807;52.436;13.346;2023-06-14T03:07:26;3.33;;;2.90;;
15843;SDS011;50807;52.436;13.346;2023-06-14T03:07:57;2.90;;;2.70;;
15843;SDS011;50807;52.436;13.346;2023-06-14T03:08:30;3.05;;;2.85;;
15843;SDS011;50807;52.436;13.346;2023-06-14T03:09:03;2.65;;;2.45;;
15843;SDS011;50807;52.436;13.346;2023-06-14T03:09:35;3.10;;;2.90;;
15843;SDS011;50807;52.436;13.346;2023-06-14T03:10:09;3.15;;;2.85;;
15843;SDS011;50807;52.436;13.346;2023-06-14T03:10:41;3.08;;;2.80;;
15843;SDS011;50807;52.436;13.346;2023-06-14T03:11:13;3.40;;;3.10;;
15843;SDS011;50807;52.436;13.346;2023-06-14T03:11:45;3.78;;;2.95;;
15843;SDS011;50807;52.436;13.346;2023-06-14T03:12:16;3.45;;;3.00;;
15843;SDS011;50807;52.436;13.346;2023-06-14T03:12:46;5.30;;;3.27;;
15843;SDS011;50807;52.436;13.346;2023-06-14T03:13:18;3.75;;;3.10;;
15843;SDS011;50807;52.436;13.346;2023-06-14T03:13:51;2.83;;;2.63;;